createdAt,value
2023-03-22T00:00:15.223Z,100517.63
2023-03-22T00:03:21.195Z,100526.13
2023-03-22T00:06:23.771Z,100504.59
2023-03-22T00:09:25.811Z,100495.75
2023-03-22T00:12:27.857Z,100533.72
2023-03-22T00:15:30.661Z,100507.84
2023-03-22T00:18:33.087Z,100525.47
2023-03-22T00:21:35.401Z,100496.56
2023-03-22T00:24:37.998Z,100517.97
2023-03-22T00:27:40.808Z,100526.16
2023-03-22T00:30:51.048Z,100528.97
2023-03-22T00:33:53.015Z,100518.34
2023-03-22T00:36:56.412Z,100504.63
2023-03-22T00:39:59.073Z,100512.47
2023-03-22T00:43:01.148Z,100503.97
2023-03-22T00:46:03.667Z,100513.63
2023-03-22T00:49:05.813Z,100518.38
2023-03-22T00:52:07.858Z,100526.25
2023-03-22T00:55:10.219Z,100522.94
2023-03-22T00:58:12.312Z,100502.81
2023-03-22T01:01:14.996Z,100502.22
2023-03-22T01:04:18.358Z,100522.50
2023-03-22T01:07:21.564Z,100526.75
2023-03-22T01:10:24.031Z,100518.41
2023-03-22T01:13:26.219Z,100516.94
2023-03-22T01:16:28.406Z,100503.66
2023-03-22T01:19:31.370Z,100501.38
2023-03-22T01:22:33.536Z,100476.66
2023-03-22T01:25:35.825Z,100498.09
2023-03-22T01:28:40.657Z,100502.03
2023-03-22T01:31:43.342Z,100487.13
2023-03-22T01:34:46.162Z,100494.97
2023-03-22T01:37:48.276Z,100482.03
2023-03-22T01:40:50.775Z,100494.97
2023-03-22T01:44:09.432Z,100492.69
2023-03-22T01:47:12.251Z,100477.13
2023-03-22T01:50:17.223Z,100497.75
2023-03-22T01:53:19.803Z,100471.06
2023-03-22T01:56:25.649Z,100503.97
2023-03-22T01:59:28.044Z,100502.97
2023-03-22T02:02:31.037Z,100496.94
2023-03-22T02:05:35.580Z,100492.16
2023-03-22T02:08:37.720Z,100508.69
2023-03-22T02:11:58.431Z,100510.84
2023-03-22T02:15:27.950Z,100510.50
2023-03-22T02:18:33.497Z,100499.34
2023-03-22T02:22:10.120Z,100512.78
2023-03-22T02:25:54.325Z,100517.66
2023-03-22T02:29:22.336Z,100520.13
2023-03-22T02:32:29.583Z,100515.03
2023-03-22T02:35:46.538Z,100494.78
2023-03-22T02:39:05.248Z,100510.78
2023-03-22T02:42:35.691Z,100517.50
2023-03-22T02:45:47.173Z,100487.91
2023-03-22T02:49:07.945Z,100526.84
2023-03-22T02:52:19.623Z,100514.38
2023-03-22T02:55:31.818Z,100525.34
2023-03-22T02:58:39.483Z,100523.41
2023-03-22T03:01:55.143Z,100515.69
2023-03-22T03:04:58.174Z,100514.09
2023-03-22T03:08:02.806Z,100512.63
2023-03-22T03:11:04.965Z,100515.78
2023-03-22T03:14:07.068Z,100535.88
2023-03-22T03:17:34.157Z,100532.69
2023-03-22T03:20:55.478Z,100524.50
2023-03-22T03:24:21.664Z,100515.06
2023-03-22T03:27:36.687Z,100519.34
2023-03-22T03:31:25.009Z,100496.06
2023-03-22T03:34:36.237Z,100487.22
2023-03-22T03:37:44.039Z,100527.31
2023-03-22T03:40:50.495Z,100528.81
2023-03-22T03:43:58.105Z,100517.00
2023-03-22T03:47:03.355Z,100512.28
2023-03-22T03:50:06.483Z,100536.94
2023-03-22T03:53:09.992Z,100528.44
2023-03-22T03:56:12.111Z,100527.47
2023-03-22T03:59:16.426Z,100536.63
2023-03-22T04:02:19.105Z,100538.13
2023-03-22T04:05:22.027Z,100503.75
2023-03-22T04:08:24.048Z,100513.91
2023-03-22T04:11:28.422Z,100530.28
2023-03-22T04:14:38.207Z,100535.03
2023-03-22T04:17:41.759Z,100514.00
2023-03-22T04:20:47.387Z,100496.75
2023-03-22T04:23:52.664Z,100530.69
2023-03-22T04:26:56.735Z,100497.28
2023-03-22T04:30:01.117Z,100526.13
2023-03-22T04:33:07.184Z,100536.94
2023-03-22T04:36:17.601Z,100541.19
2023-03-22T04:39:22.305Z,100527.78
2023-03-22T04:42:26.377Z,100549.41
2023-03-22T04:45:34.632Z,100548.84
2023-03-22T04:48:38.124Z,100547.41
2023-03-22T04:51:42.449Z,100544.44
2023-03-22T04:54:44.621Z,100522.44
2023-03-22T04:57:49.651Z,100538.66
2023-03-22T05:00:56.773Z,100527.88
2023-03-22T05:03:59.021Z,100550.25
2023-03-22T05:07:01.081Z,100528.63
2023-03-22T05:10:03.157Z,100563.63
2023-03-22T05:13:05.304Z,100560.69
2023-03-22T05:16:08.257Z,100572.59
2023-03-22T05:19:16.217Z,100563.31
2023-03-22T05:22:19.300Z,100556.91
2023-03-22T05:25:21.240Z,100552.44
2023-03-22T05:28:23.522Z,100580.75
2023-03-22T05:31:28.628Z,100569.34
2023-03-22T05:34:35.984Z,100578.47
2023-03-22T05:37:38.354Z,100584.31
2023-03-22T05:40:43.070Z,100579.13
2023-03-22T05:43:45.262Z,100582.91
2023-03-22T05:46:47.324Z,100573.59
2023-03-22T05:49:49.393Z,100566.59
2023-03-22T05:52:53.497Z,100556.25
2023-03-22T05:56:00.818Z,100588.34
2023-03-22T05:59:04.734Z,100573.94
2023-03-22T06:02:06.980Z,100586.59
2023-03-22T06:05:11.402Z,100571.72
2023-03-22T06:08:13.407Z,100592.66
2023-03-22T06:11:15.742Z,100602.47
2023-03-22T06:14:17.793Z,100605.47
2023-03-22T06:17:22.148Z,100619.56
2023-03-22T06:20:25.897Z,100616.44
2023-03-22T06:23:32.428Z,100580.72
2023-03-22T06:26:34.507Z,100600.00
2023-03-22T06:29:50.064Z,100604.50
2023-03-22T06:32:55.477Z,100610.91
2023-03-22T06:35:59.106Z,100613.69
2023-03-22T06:39:05.280Z,100602.53
2023-03-22T06:42:07.741Z,100621.53
2023-03-22T06:45:12.206Z,100616.53
2023-03-22T06:48:15.026Z,100582.91
2023-03-22T06:51:17.381Z,100594.47
2023-03-22T06:54:20.413Z,100625.84
2023-03-22T06:57:22.580Z,100623.31
2023-03-22T07:00:24.767Z,100616.19
2023-03-22T07:03:29.842Z,100614.19
2023-03-22T07:06:35.655Z,100638.47
2023-03-22T07:09:41.993Z,100604.75
2023-03-22T07:13:23.612Z,100629.53
2023-03-22T07:16:35.901Z,100638.28
2023-03-22T07:19:49.254Z,100604.00
2023-03-22T07:23:13.644Z,100623.75
2023-03-22T07:26:34.127Z,100643.47
2023-03-22T07:34:19.188Z,100644.91
2023-03-22T07:37:27.765Z,100639.22
2023-03-22T07:40:33.824Z,100636.13
2023-03-22T07:43:54.250Z,100612.94
2023-03-22T07:47:00.908Z,100630.00
2023-03-22T07:50:06.154Z,100614.94
2023-03-22T07:53:09.992Z,100646.72
2023-03-22T07:56:15.774Z,100625.81
2023-03-22T07:59:18.097Z,100630.28
2023-03-22T08:02:35.937Z,100644.63
2023-03-22T08:05:43.060Z,100627.66
2023-03-22T08:08:46.047Z,100638.41
2023-03-22T08:11:48.164Z,100613.91
2023-03-22T08:14:53.380Z,100632.22
2023-03-22T08:18:00.906Z,100633.03
2023-03-22T08:21:04.695Z,100619.19
2023-03-22T08:24:07.479Z,100615.25
2023-03-22T08:27:09.667Z,100632.28
2023-03-22T08:30:12.461Z,100629.09
2023-03-22T08:33:15.017Z,100617.94
2023-03-22T08:36:20.426Z,100619.22
2023-03-22T08:39:23.176Z,100638.84
2023-03-22T08:42:26.389Z,100642.75
2023-03-22T08:45:56.549Z,100652.25
2023-03-22T08:49:20.087Z,100654.94
2023-03-22T08:52:28.183Z,100631.16
2023-03-22T08:55:44.292Z,100638.66
2023-03-22T09:02:26.591Z,100621.66
2023-03-22T09:05:42.026Z,100605.59
2023-03-22T09:09:02.078Z,100618.38
2023-03-22T09:12:16.534Z,100622.63
2023-03-22T09:15:18.987Z,100602.38
2023-03-22T09:18:23.838Z,100633.19
2023-03-22T09:21:28.199Z,100642.09
2023-03-22T09:24:33.107Z,100617.03
2023-03-22T09:27:36.498Z,100608.06
2023-03-22T09:30:39.982Z,100642.28
2023-03-22T09:33:45.129Z,100633.13
2023-03-22T09:36:47.721Z,100613.78
2023-03-22T09:39:53.265Z,100627.44
2023-03-22T09:43:07.818Z,100614.91
2023-03-22T09:46:20.631Z,100613.16
2023-03-22T09:49:28.145Z,100620.53
2023-03-22T09:52:32.206Z,100610.13
2023-03-22T09:55:41.762Z,100616.69
2023-03-22T09:58:58.508Z,100631.28
2023-03-22T10:02:28.854Z,100612.09
2023-03-22T10:05:58.977Z,100616.00
2023-03-22T10:09:19.673Z,100581.94
2023-03-22T10:12:30.752Z,100605.72
2023-03-22T10:15:56.514Z,100608.22
2023-03-22T10:19:24.052Z,100614.53
2023-03-22T10:22:45.575Z,100603.25
2023-03-22T10:25:48.784Z,100589.84
2023-03-22T10:29:04.124Z,100585.78
2023-03-22T10:32:33.692Z,100611.25
2023-03-22T10:35:37.145Z,100617.47
2023-03-22T10:38:48.513Z,100615.63
2023-03-22T10:41:58.141Z,100613.25
2023-03-22T10:45:09.954Z,100608.13
2023-03-22T10:48:25.764Z,100600.00
2023-03-22T10:51:44.147Z,100606.34
2023-03-22T10:55:07.873Z,100608.19
2023-03-22T10:58:17.919Z,100610.59
2023-03-22T11:05:24.847Z,100565.31
2023-03-22T11:08:58.166Z,100594.88
2023-03-22T11:12:53.059Z,100592.44
2023-03-22T11:17:13.651Z,100563.22
2023-03-22T11:20:05.222Z,100564.44
2023-03-22T11:23:26.923Z,100551.59
2023-03-22T11:26:41.858Z,100564.50
2023-03-22T11:29:54.179Z,100564.75
2023-03-22T11:33:02.057Z,100567.97
2023-03-22T11:36:21.076Z,100568.63
2023-03-22T11:39:31.084Z,100561.25
2023-03-22T11:42:36.435Z,100557.53
2023-03-22T11:45:43.908Z,100536.19
2023-03-22T11:48:51.086Z,100553.44
2023-03-22T11:51:56.686Z,100527.66
2023-03-22T11:55:02.459Z,100529.66
2023-03-22T11:58:20.354Z,100546.53
2023-03-22T12:01:44.479Z,100550.53
2023-03-22T12:08:45.745Z,100532.06
2023-03-22T12:11:52.364Z,100546.31
2023-03-22T12:15:05.347Z,100550.41
2023-03-22T12:18:16.932Z,100545.31
2023-03-22T12:21:19.883Z,100548.69
2023-03-22T12:24:35.506Z,100541.06
2023-03-22T12:27:46.472Z,100509.94
2023-03-22T12:30:59.519Z,100517.59
2023-03-22T12:34:14.558Z,100551.03
2023-03-22T12:37:27.204Z,100536.59
2023-03-22T12:40:34.997Z,100547.19
2023-03-22T12:43:53.732Z,100544.88
2023-03-22T12:47:07.857Z,100516.69
2023-03-22T12:50:18.481Z,100543.56
2023-03-22T12:53:23.473Z,100521.94
2023-03-22T12:56:35.086Z,100532.94
2023-03-22T12:59:38.086Z,100514.03
2023-03-22T13:02:52.190Z,100524.59
2023-03-22T13:11:00.649Z,100508.94
2023-03-22T13:14:02.934Z,100486.78
2023-03-22T13:17:22.782Z,100510.97
2023-03-22T13:20:41.354Z,100476.97
2023-03-22T13:24:02.632Z,100500.78
2023-03-22T13:27:12.846Z,100467.06
2023-03-22T13:30:23.227Z,100492.63
2023-03-22T13:33:39.443Z,100482.66
2023-03-22T13:36:50.013Z,100487.91
2023-03-22T13:39:52.380Z,100465.13
2023-03-22T13:42:54.728Z,100475.09
2023-03-22T13:46:12.312Z,100472.09
2023-03-22T13:49:20.958Z,100464.97
2023-03-22T13:52:27.941Z,100449.97
2023-03-22T13:55:48.760Z,100469.38
2023-03-22T13:58:53.190Z,100465.72
2023-03-22T14:02:11.064Z,100459.13
2023-03-22T14:05:18.667Z,100446.19
2023-03-22T14:08:34.258Z,100425.69
2023-03-22T14:11:49.673Z,100451.88
2023-03-22T14:15:07.410Z,100429.13
2023-03-22T14:18:25.353Z,100446.06
2023-03-22T14:21:38.783Z,100450.50
